createdAt,value
2022-10-22T00:01:47.720Z,67.56
2022-10-22T00:07:19.028Z,67.60
2022-10-22T00:12:50.407Z,67.58
2022-10-22T00:18:21.287Z,67.16
2022-10-22T00:23:52.371Z,67.32
2022-10-22T00:29:23.597Z,67.30
2022-10-22T00:34:54.559Z,67.66
2022-10-22T00:40:26.228Z,68.06
2022-10-22T00:45:57.481Z,68.04
2022-10-22T00:51:30.969Z,67.77
2022-10-22T00:57:02.346Z,67.61
2022-10-22T01:02:33.414Z,67.90
2022-10-22T01:08:05.820Z,68.46
2022-10-22T01:13:49.036Z,67.89
2022-10-22T01:19:26.155Z,67.83
2022-10-22T01:25:04.074Z,68.27
2022-10-22T01:30:36.827Z,68.53
2022-10-22T01:36:08.536Z,68.72
2022-10-22T01:41:40.615Z,67.59
2022-10-22T01:47:41.328Z,68.44
2022-10-22T01:53:25.755Z,67.78
2022-10-22T01:59:02.611Z,67.85
2022-10-22T02:05:18.387Z,68.16
2022-10-22T02:10:49.916Z,68.56
2022-10-22T02:16:30.895Z,68.44
2022-10-22T02:22:02.182Z,68.28
2022-10-22T02:27:48.232Z,67.96
2022-10-22T02:33:24.545Z,68.88
2022-10-22T02:38:56.229Z,68.97
2022-10-22T02:44:27.205Z,68.30
2022-10-22T02:49:58.009Z,68.39
2022-10-22T02:55:29.069Z,69.07
2022-10-22T03:01:00.498Z,69.18
2022-10-22T03:06:31.656Z,68.84
2022-10-22T03:12:02.598Z,69.36
2022-10-22T03:17:33.685Z,69.48
2022-10-22T03:23:04.834Z,68.83
2022-10-22T03:28:36.692Z,69.19
2022-10-22T03:34:07.837Z,69.08
2022-10-22T03:39:39.368Z,69.13
2022-10-22T03:45:11.088Z,69.34
2022-10-22T03:50:42.023Z,69.65
2022-10-22T03:56:13.808Z,69.64
2022-10-22T04:01:45.182Z,69.54
2022-10-22T04:07:16.138Z,69.30
2022-10-22T04:12:48.719Z,69.19
2022-10-22T04:18:21.343Z,68.97
2022-10-22T04:23:53.232Z,69.19
2022-10-22T04:29:24.636Z,69.69
2022-10-22T04:34:55.823Z,69.01
2022-10-22T04:40:26.718Z,69.05
2022-10-22T04:46:00.715Z,69.82
2022-10-22T04:51:32.447Z,69.34
2022-10-22T04:57:03.658Z,69.69
2022-10-22T05:02:35.152Z,70.15
2022-10-22T05:08:06.483Z,69.93
2022-10-22T05:13:37.596Z,69.79
2022-10-22T05:19:09.007Z,69.26
2022-10-22T05:24:40.189Z,69.68
2022-10-22T05:30:12.039Z,69.58
2022-10-22T05:35:46.709Z,70.26
2022-10-22T05:41:21.411Z,69.73
2022-10-22T05:46:52.653Z,69.87
2022-10-22T05:52:24.508Z,69.63
2022-10-22T05:57:55.417Z,69.69
2022-10-22T06:03:26.767Z,69.70
2022-10-22T06:09:03.012Z,69.48
2022-10-22T06:14:34.186Z,69.85
2022-10-22T06:25:42.772Z,69.99
2022-10-22T06:31:14.661Z,69.93
2022-10-22T06:36:46.671Z,69.91
2022-10-22T06:42:17.505Z,70.03
2022-10-22T06:47:52.176Z,69.71
2022-10-22T06:53:23.396Z,69.83
2022-10-22T06:58:56.057Z,69.50
2022-10-22T07:04:27.160Z,69.23
2022-10-22T07:09:58.386Z,69.79
2022-10-22T07:15:29.743Z,69.85
2022-10-22T07:21:01.127Z,70.22
2022-10-22T07:26:32.867Z,70.00
2022-10-22T07:32:03.950Z,70.35
2022-10-22T07:37:35.120Z,69.80
2022-10-22T07:43:06.388Z,70.60
2022-10-22T07:48:37.849Z,70.20
2022-10-22T07:54:08.789Z,70.24
2022-10-22T07:59:39.664Z,70.33
2022-10-22T08:05:10.546Z,70.23
2022-10-22T08:10:41.581Z,70.83
2022-10-22T08:16:12.780Z,70.33
2022-10-22T08:21:44.008Z,70.83
2022-10-22T08:27:15.066Z,70.69
2022-10-22T08:32:46.260Z,71.24
2022-10-22T08:38:18.676Z,71.30
2022-10-22T08:44:08.094Z,71.33
2022-10-22T08:49:42.314Z,71.95
2022-10-22T08:55:15.017Z,71.68
2022-10-22T09:00:52.237Z,71.46
2022-10-22T09:06:28.877Z,71.99
2022-10-22T09:12:01.319Z,72.10
2022-10-22T09:17:50.844Z,71.40
2022-10-22T09:23:27.393Z,72.20
2022-10-22T09:29:01.062Z,71.93
2022-10-22T09:34:33.137Z,72.35
2022-10-22T09:40:05.935Z,71.82
2022-10-22T09:45:37.000Z,71.87
2022-10-22T09:51:21.371Z,72.18
2022-10-22T09:56:59.555Z,71.81
2022-10-22T10:02:38.058Z,72.09
2022-10-22T10:08:14.922Z,72.03
2022-10-22T10:14:10.930Z,72.00
2022-10-22T10:20:15.060Z,71.85
2022-10-22T10:26:01.387Z,71.40
2022-10-22T10:31:38.707Z,71.10
2022-10-22T10:37:22.931Z,71.67
2022-10-22T10:42:59.964Z,71.92
2022-10-22T10:48:43.289Z,72.13
2022-10-22T10:54:45.214Z,71.70
2022-10-22T11:00:20.113Z,71.97
2022-10-22T11:06:07.026Z,73.13
2022-10-22T11:11:46.342Z,72.56
2022-10-22T11:17:18.818Z,73.32
2022-10-22T11:23:18.913Z,73.04
2022-10-22T11:28:54.022Z,73.49
2022-10-22T11:34:33.766Z,73.07
2022-10-22T11:40:10.938Z,72.48
2022-10-22T11:45:43.262Z,73.08
2022-10-22T11:51:47.784Z,72.12
2022-10-22T11:57:24.747Z,72.29
2022-10-22T12:03:04.160Z,72.88
2022-10-22T12:08:45.940Z,72.75
2022-10-22T12:14:24.592Z,72.77
2022-10-22T12:20:02.927Z,72.55
2022-10-22T12:25:36.647Z,73.13
2022-10-22T12:31:14.639Z,72.52
2022-10-22T12:36:48.039Z,72.34
2022-10-22T12:42:19.157Z,73.33
2022-10-22T12:47:52.909Z,73.73
2022-10-22T12:53:31.636Z,73.33
2022-10-22T12:59:12.085Z,74.03
2022-10-22T13:04:42.909Z,74.26
2022-10-22T13:10:24.966Z,75.04
2022-10-22T13:15:57.021Z,75.41
2022-10-22T13:21:34.024Z,74.94
2022-10-22T13:27:09.376Z,75.04
2022-10-22T13:32:40.361Z,75.48
2022-10-22T13:38:19.027Z,75.09
2022-10-22T13:43:50.231Z,76.10
2022-10-22T13:49:25.011Z,76.00
2022-10-22T13:54:56.300Z,75.96
2022-10-22T14:00:27.688Z,75.04
2022-10-22T14:05:59.328Z,75.00
2022-10-22T14:11:32.683Z,75.25
2022-10-22T14:17:03.692Z,75.56
2022-10-22T14:22:35.011Z,74.75
2022-10-22T14:28:05.959Z,75.16
2022-10-22T14:33:37.400Z,74.79
2022-10-22T14:39:08.380Z,75.01
2022-10-22T14:44:39.350Z,74.72
2022-10-22T14:50:11.152Z,75.33
2022-10-22T14:55:44.271Z,74.95
2022-10-22T15:01:15.511Z,75.06
2022-10-22T15:06:46.350Z,75.00
2022-10-22T15:12:17.366Z,74.45
2022-10-22T15:17:48.565Z,74.49
2022-10-22T15:23:19.749Z,74.85
2022-10-22T15:28:50.683Z,74.96
2022-10-22T15:34:25.091Z,75.05
2022-10-22T15:39:55.872Z,74.90
2022-10-22T15:45:26.852Z,74.89
2022-10-22T15:50:57.790Z,74.82
2022-10-22T15:56:29.651Z,74.83
2022-10-22T16:02:00.441Z,74.62
2022-10-22T16:07:31.559Z,74.76
2022-10-22T16:13:02.857Z,74.58
2022-10-22T16:18:34.304Z,74.54
2022-10-22T16:24:06.710Z,74.41
2022-10-22T16:29:39.019Z,74.25
2022-10-22T16:35:10.865Z,74.00
2022-10-22T16:40:42.457Z,73.68
2022-10-22T16:46:13.473Z,73.62
2022-10-22T16:51:44.850Z,73.54
2022-10-22T16:57:15.804Z,73.54
2022-10-22T17:02:52.109Z,73.24
2022-10-22T17:08:23.537Z,73.20
2022-10-22T17:13:54.917Z,72.97
2022-10-22T17:19:27.293Z,72.98
2022-10-22T17:25:33.778Z,73.03
2022-10-22T17:31:12.122Z,72.73
2022-10-22T17:36:43.912Z,72.68
2022-10-22T17:42:15.052Z,72.62
2022-10-22T17:47:46.317Z,72.73
2022-10-22T17:53:17.209Z,72.79
2022-10-22T17:58:48.597Z,72.61
2022-10-22T18:04:20.286Z,72.78
2022-10-22T18:09:51.352Z,72.29
2022-10-22T18:15:22.938Z,72.42
2022-10-22T18:20:54.422Z,72.28
2022-10-22T18:26:26.930Z,72.40
2022-10-22T18:31:58.634Z,72.54
2022-10-22T18:37:31.130Z,72.54
2022-10-22T18:43:03.512Z,72.27
2022-10-22T18:48:35.933Z,72.42
2022-10-22T18:54:22.050Z,72.53
2022-10-22T18:59:58.566Z,72.60
2022-10-22T19:05:30.952Z,72.40
2022-10-22T19:11:02.546Z,72.38
2022-10-22T19:16:35.477Z,72.68
2022-10-22T19:22:06.603Z,72.34
2022-10-22T19:27:39.472Z,72.34
2022-10-22T19:33:10.861Z,72.28
2022-10-22T19:38:47.076Z,72.66
2022-10-22T19:44:18.405Z,72.44
2022-10-22T19:49:49.843Z,72.23
2022-10-22T19:55:21.420Z,72.54
2022-10-22T20:00:53.113Z,72.46
2022-10-22T20:06:24.629Z,72.41
2022-10-22T20:11:55.455Z,72.25
2022-10-22T20:17:26.638Z,72.03
2022-10-22T20:22:58.047Z,71.97
2022-10-22T20:28:29.045Z,72.51
2022-10-22T20:34:04.360Z,72.25
2022-10-22T20:39:35.595Z,72.65
2022-10-22T20:45:07.946Z,72.42
2022-10-22T20:50:38.842Z,72.21
2022-10-22T20:56:10.908Z,72.43
2022-10-22T21:01:46.804Z,72.49
2022-10-22T21:07:18.098Z,72.15
2022-10-22T21:12:49.179Z,72.45
2022-10-22T21:18:20.427Z,72.42
2022-10-22T21:23:51.812Z,72.00
2022-10-22T21:29:22.703Z,72.25
2022-10-22T21:34:54.308Z,71.88
2022-10-22T21:40:27.720Z,72.09
2022-10-22T21:46:09.828Z,71.78
2022-10-22T21:51:40.936Z,71.99
2022-10-22T21:57:12.059Z,72.08
2022-10-22T22:02:43.507Z,72.17
2022-10-22T22:08:15.858Z,71.92
2022-10-22T22:13:48.860Z,71.80
2022-10-22T22:19:20.067Z,71.91
2022-10-22T22:24:51.079Z,71.83
2022-10-22T22:30:21.981Z,72.09
2022-10-22T22:35:53.768Z,72.09
2022-10-22T22:41:24.593Z,72.16
2022-10-22T22:46:55.424Z,72.15
2022-10-22T22:52:26.484Z,71.83
2022-10-22T22:57:58.338Z,72.31
2022-10-22T23:03:29.188Z,72.27
2022-10-22T23:09:00.755Z,72.35
2022-10-22T23:14:31.833Z,72.12
2022-10-22T23:20:02.875Z,71.89
2022-10-22T23:25:34.126Z,71.86
2022-10-22T23:31:06.841Z,72.25
2022-10-22T23:36:38.689Z,72.19
2022-10-22T23:42:09.771Z,72.26
2022-10-22T23:47:41.104Z,71.50
2022-10-22T23:53:12.446Z,72.01
2022-10-22T23:58:44.306Z,71.87
